createdAt,value
2022-09-20T00:01:36.466Z,73.77
2022-09-20T00:04:06.837Z,73.79
2022-09-20T00:06:34.837Z,73.71
2022-09-20T00:09:04.198Z,73.75
2022-09-20T00:11:33.981Z,74.02
2022-09-20T00:14:03.591Z,73.89
2022-09-20T00:16:34.654Z,73.77
2022-09-20T00:19:06.819Z,73.79
2022-09-20T00:21:39.013Z,73.69
2022-09-20T00:24:06.749Z,73.64
2022-09-20T00:26:34.423Z,73.66
2022-09-20T00:29:03.340Z,73.77
2022-09-20T00:31:32.388Z,73.88
2022-09-20T00:34:16.030Z,73.83
2022-09-20T00:36:44.619Z,73.79
2022-09-20T00:39:15.400Z,73.73
2022-09-20T00:41:43.134Z,74.03
2022-09-20T00:44:43.059Z,73.92
2022-09-20T00:47:19.481Z,74.04
2022-09-20T00:49:48.417Z,73.86
2022-09-20T00:52:17.378Z,73.87
2022-09-20T00:54:45.367Z,73.82
2022-09-20T00:57:12.965Z,73.96
2022-09-20T00:59:45.441Z,73.96
2022-09-20T01:02:18.332Z,73.88
2022-09-20T01:04:48.198Z,73.98
2022-09-20T01:07:22.170Z,73.85
2022-09-20T01:09:50.701Z,74.01
2022-09-20T01:12:23.430Z,73.95
2022-09-20T01:14:52.407Z,73.94
2022-09-20T01:17:24.082Z,73.96
2022-09-20T01:20:14.699Z,74.15
2022-09-20T01:23:06.186Z,74.14
2022-09-20T01:26:04.889Z,74.08
2022-09-20T01:28:33.991Z,74.21
2022-09-20T01:31:10.809Z,74.14
2022-09-20T01:33:59.626Z,74.13
2022-09-20T01:36:37.946Z,74.28
2022-09-20T01:39:19.509Z,74.15
2022-09-20T01:42:03.074Z,73.98
2022-09-20T01:44:49.253Z,74.01
2022-09-20T01:47:33.735Z,73.96
2022-09-20T01:50:33.241Z,73.95
2022-09-20T01:53:32.733Z,73.99
2022-09-20T01:56:16.254Z,74.20
2022-09-20T01:59:24.526Z,74.25
2022-09-20T02:02:14.553Z,74.24
2022-09-20T02:05:05.745Z,74.22
2022-09-20T02:08:09.338Z,74.08
2022-09-20T02:10:53.341Z,74.06
2022-09-20T02:13:46.335Z,74.07
2022-09-20T02:16:33.088Z,74.07
2022-09-20T02:19:32.745Z,74.05
2022-09-20T02:22:27.188Z,73.80
2022-09-20T02:25:13.872Z,73.95
2022-09-20T02:28:13.427Z,74.08
2022-09-20T02:30:43.936Z,74.01
2022-09-20T02:33:43.477Z,74.13
2022-09-20T02:36:33.680Z,73.97
2022-09-20T02:39:19.712Z,73.90
2022-09-20T02:41:53.482Z,73.85
2022-09-20T02:44:42.766Z,73.96
2022-09-20T02:47:29.375Z,74.01
2022-09-20T02:50:02.556Z,74.10
2022-09-20T02:52:52.848Z,74.10
2022-09-20T02:55:44.106Z,74.19
2022-09-20T02:58:39.163Z,74.25
2022-09-20T03:01:20.114Z,74.40
2022-09-20T03:04:18.692Z,74.25
2022-09-20T03:07:18.288Z,74.13
2022-09-20T03:09:57.132Z,74.00
2022-09-20T03:12:27.517Z,74.06
2022-09-20T03:15:11.922Z,73.94
2022-09-20T03:18:07.450Z,73.98
2022-09-20T03:21:00.235Z,74.07
2022-09-20T03:23:59.943Z,74.11
2022-09-20T03:26:41.267Z,74.23
2022-09-20T03:29:32.935Z,74.01
2022-09-20T03:32:34.379Z,74.04
2022-09-20T03:35:34.571Z,74.05
2022-09-20T03:38:09.319Z,74.21
2022-09-20T03:40:55.862Z,74.29
2022-09-20T03:43:24.364Z,74.37
2022-09-20T03:46:07.953Z,74.33
2022-09-20T03:48:41.567Z,74.42
2022-09-20T03:51:33.852Z,74.56
2022-09-20T03:54:23.802Z,74.41
2022-09-20T03:57:02.944Z,74.54
2022-09-20T03:59:54.224Z,74.63
2022-09-20T04:02:45.862Z,74.48
2022-09-20T04:05:37.294Z,74.26
2022-09-20T04:08:26.995Z,73.99
2022-09-20T04:11:06.453Z,73.93
2022-09-20T04:13:37.085Z,73.78
2022-09-20T04:16:30.432Z,73.80
2022-09-20T04:19:12.525Z,74.13
2022-09-20T04:21:56.161Z,74.12
2022-09-20T04:24:33.246Z,74.27
2022-09-20T04:27:15.609Z,74.31
2022-09-20T04:29:55.922Z,74.42
2022-09-20T04:32:55.480Z,74.54
2022-09-20T04:35:57.878Z,74.48
2022-09-20T04:38:26.733Z,74.47
2022-09-20T04:41:28.156Z,74.39
2022-09-20T04:44:14.683Z,74.21
2022-09-20T04:47:02.153Z,74.32
2022-09-20T04:50:06.175Z,74.33
2022-09-20T04:52:36.982Z,74.35
2022-09-20T04:55:35.684Z,74.29
2022-09-20T04:58:36.245Z,74.26
2022-09-20T05:01:40.484Z,74.32
2022-09-20T05:04:40.939Z,74.43
2022-09-20T05:07:36.617Z,74.54
2022-09-20T05:10:31.262Z,74.51
2022-09-20T05:13:30.808Z,74.24
2022-09-20T05:16:21.798Z,74.24
2022-09-20T05:19:00.074Z,74.08
2022-09-20T05:21:48.282Z,74.12
2022-09-20T05:24:28.265Z,74.20
2022-09-20T05:27:32.038Z,74.33
2022-09-20T05:30:33.704Z,74.20
2022-09-20T05:33:18.239Z,74.16
2022-09-20T05:35:51.655Z,74.10
2022-09-20T05:38:32.668Z,74.08
2022-09-20T05:41:38.204Z,74.05
2022-09-20T05:44:24.605Z,74.15
2022-09-20T05:47:24.113Z,74.13
2022-09-20T05:50:34.759Z,74.14
2022-09-20T05:53:21.512Z,74.39
2022-09-20T05:56:24.100Z,74.49
2022-09-20T05:59:11.909Z,74.55
2022-09-20T06:02:01.571Z,74.28
2022-09-20T06:04:46.248Z,74.28
2022-09-20T06:07:17.098Z,74.40
2022-09-20T06:10:25.186Z,74.39
2022-09-20T06:13:15.241Z,74.51
2022-09-20T06:16:04.734Z,74.52
2022-09-20T06:19:04.470Z,74.58
2022-09-20T06:21:46.735Z,74.75
2022-09-20T06:24:55.874Z,74.30
2022-09-20T06:27:41.509Z,74.44
2022-09-20T06:30:24.380Z,74.42
2022-09-20T06:32:57.680Z,74.56
2022-09-20T06:35:37.113Z,74.54
2022-09-20T06:38:42.748Z,74.55
2022-09-20T06:41:35.643Z,74.30
2022-09-20T06:44:06.598Z,74.16
2022-09-20T06:46:36.215Z,74.09
2022-09-20T06:49:08.512Z,74.15
2022-09-20T06:51:38.697Z,73.91
2022-09-20T06:54:14.623Z,73.86
2022-09-20T06:56:47.180Z,73.71
2022-09-20T06:59:15.279Z,73.53
2022-09-20T07:01:43.427Z,73.53
2022-09-20T07:04:11.227Z,73.34
2022-09-20T07:06:38.807Z,73.39
2022-09-20T07:09:07.537Z,73.49
2022-09-20T07:11:38.656Z,73.59
2022-09-20T07:14:12.398Z,73.48
2022-09-20T07:16:40.090Z,73.22
2022-09-20T07:19:08.368Z,73.19
2022-09-20T07:21:36.058Z,73.17
2022-09-20T07:24:03.791Z,72.86
2022-09-20T07:26:32.356Z,72.71
2022-09-20T07:29:00.151Z,72.52
2022-09-20T07:31:29.357Z,72.60
2022-09-20T07:33:57.225Z,72.35
2022-09-20T07:36:25.413Z,72.44
2022-09-20T07:38:53.417Z,72.18
2022-09-20T07:41:23.005Z,72.01
2022-09-20T07:43:51.193Z,72.21
2022-09-20T07:46:20.818Z,72.40
2022-09-20T07:48:48.565Z,72.44
2022-09-20T07:51:16.519Z,72.52
2022-09-20T07:53:44.164Z,72.44
2022-09-20T07:56:19.072Z,72.62
2022-09-20T07:58:52.265Z,72.42
2022-09-20T08:01:22.658Z,72.36
2022-09-20T08:03:51.158Z,72.72
2022-09-20T08:06:21.225Z,72.63
2022-09-20T08:08:51.646Z,72.22
2022-09-20T08:11:28.887Z,72.48
2022-09-20T08:14:08.790Z,72.47
2022-09-20T08:16:40.811Z,72.09
2022-09-20T08:19:09.310Z,72.00
2022-09-20T08:21:39.790Z,71.81
2022-09-20T08:24:08.065Z,71.62
2022-09-20T08:26:36.569Z,71.70
2022-09-20T08:29:06.181Z,71.12
2022-09-20T08:31:37.267Z,71.18
2022-09-20T08:34:06.964Z,70.82
2022-09-20T08:36:37.158Z,70.84
2022-09-20T08:42:05.769Z,71.47
2022-09-20T08:44:45.375Z,70.96
2022-09-20T08:47:38.963Z,70.78
2022-09-20T08:50:11.557Z,70.45
2022-09-20T08:52:44.805Z,69.61
2022-09-20T08:55:36.366Z,69.70
2022-09-20T08:58:08.878Z,69.87
2022-09-20T09:00:41.772Z,70.07
2022-09-20T09:03:17.008Z,69.12
2022-09-20T09:05:50.651Z,69.60
2022-09-20T09:08:26.985Z,69.64
2022-09-20T09:11:16.374Z,69.67
2022-09-20T09:14:04.697Z,70.35
2022-09-20T09:16:36.464Z,69.25
2022-09-20T09:19:44.613Z,69.14
2022-09-20T09:22:26.567Z,70.13
2022-09-20T09:25:13.262Z,69.12
2022-09-20T09:27:50.741Z,69.18
2022-09-20T09:30:37.179Z,68.93
2022-09-20T09:33:25.342Z,69.03
2022-09-20T09:36:14.342Z,68.08
2022-09-20T09:38:46.210Z,67.62
2022-09-20T09:41:35.599Z,68.09
2022-09-20T09:44:37.905Z,68.57
2022-09-20T09:47:27.653Z,67.33
2022-09-20T09:50:08.836Z,67.14
2022-09-20T09:52:58.456Z,66.72
2022-09-20T09:55:38.348Z,67.00
2022-09-20T09:58:22.827Z,67.68
2022-09-20T10:00:56.338Z,67.59
2022-09-20T10:04:31.498Z,66.78
2022-09-20T10:07:09.174Z,66.63
2022-09-20T10:14:35.878Z,67.93
2022-09-20T10:17:15.353Z,67.41
2022-09-20T10:19:59.235Z,67.00
2022-09-20T10:26:08.087Z,66.72
2022-09-20T10:29:01.973Z,65.62
2022-09-20T10:32:04.311Z,65.03
2022-09-20T10:34:50.670Z,64.63
2022-09-20T10:37:32.136Z,63.92
2022-09-20T10:40:07.672Z,63.81
2022-09-20T10:42:57.345Z,64.47
2022-09-20T10:46:08.674Z,64.38
2022-09-20T10:48:43.665Z,64.26
2022-09-20T10:51:44.540Z,63.71
2022-09-20T10:54:54.533Z,64.74
2022-09-20T10:57:50.983Z,65.11
2022-09-20T11:00:26.754Z,64.84
2022-09-20T11:03:20.323Z,65.12
2022-09-20T11:05:56.892Z,64.15
2022-09-20T11:08:32.543Z,62.42
2022-09-20T11:11:06.017Z,61.91
2022-09-20T11:14:05.526Z,62.25
2022-09-20T11:16:43.390Z,62.87
2022-09-20T11:19:13.921Z,63.40
2022-09-20T11:21:50.738Z,63.81
2022-09-20T11:24:42.205Z,63.30
2022-09-20T11:27:20.187Z,61.85
2022-09-20T11:29:56.025Z,61.24
2022-09-20T11:32:32.752Z,60.84
2022-09-20T11:35:29.341Z,61.39
2022-09-20T11:38:32.804Z,60.28
2022-09-20T11:41:25.872Z,60.02
2022-09-20T11:43:59.661Z,60.28
2022-09-20T11:46:31.749Z,60.81
2022-09-20T11:49:09.960Z,60.98
2022-09-20T11:51:54.529Z,61.12
2022-09-20T11:54:47.686Z,60.98
2022-09-20T11:57:16.976Z,60.17
2022-09-20T11:59:53.851Z,58.77
2022-09-20T12:02:43.214Z,57.57
2022-09-20T12:05:36.022Z,56.02
2022-09-20T12:08:35.563Z,56.34
2022-09-20T12:11:13.274Z,57.57
2022-09-20T12:13:52.042Z,58.17
2022-09-20T12:16:44.482Z,57.51
2022-09-20T12:19:21.264Z,56.52
2022-09-20T12:22:04.843Z,55.82
2022-09-20T12:24:44.566Z,56.39
2022-09-20T12:27:29.244Z,56.68
2022-09-20T12:30:37.959Z,56.54
2022-09-20T12:33:27.632Z,56.86
2022-09-20T12:36:17.520Z,56.22
2022-09-20T12:39:02.228Z,56.38
2022-09-20T12:41:45.518Z,56.26
2022-09-20T12:44:32.188Z,56.17
2022-09-20T12:47:23.137Z,56.66
2022-09-20T12:50:12.997Z,56.43
2022-09-20T12:52:59.516Z,55.28
2022-09-20T12:55:27.849Z,55.15
2022-09-20T12:58:05.188Z,54.82
2022-09-20T13:00:42.219Z,54.63
2022-09-20T13:03:23.779Z,55.00
2022-09-20T13:06:13.468Z,55.15
2022-09-20T13:08:59.966Z,55.01
2022-09-20T13:11:40.836Z,54.90
2022-09-20T13:14:27.761Z,55.03
2022-09-20T13:17:17.220Z,54.92
2022-09-20T13:19:47.095Z,55.18
2022-09-20T13:22:22.611Z,55.11
2022-09-20T13:25:00.030Z,54.89
2022-09-20T13:27:32.535Z,55.30
2022-09-20T13:30:18.497Z,55.18
2022-09-20T13:32:47.503Z,55.21
2022-09-20T13:35:21.642Z,55.46
2022-09-20T13:37:52.004Z,55.66
2022-09-20T13:40:21.486Z,55.87
2022-09-20T13:42:52.444Z,55.82
2022-09-20T13:45:24.804Z,56.19
2022-09-20T13:47:58.107Z,56.22
2022-09-20T13:50:25.869Z,56.37
2022-09-20T13:52:59.641Z,56.41
2022-09-20T13:55:36.016Z,56.32
2022-09-20T13:58:16.888Z,56.43
2022-09-20T14:01:05.620Z,56.55
2022-09-20T14:03:35.234Z,56.74
2022-09-20T14:06:09.928Z,56.70
2022-09-20T14:08:46.845Z,56.60
2022-09-20T14:11:27.920Z,56.53
2022-09-20T14:13:58.333Z,56.22
2022-09-20T14:16:32.904Z,56.36
2022-09-20T14:19:03.159Z,56.41
2022-09-20T14:21:35.415Z,56.23
2022-09-20T14:24:07.600Z,56.71
2022-09-20T14:26:37.346Z,57.49
2022-09-20T14:29:37.212Z,57.60
2022-09-20T14:32:18.298Z,57.07
2022-09-20T14:35:05.008Z,55.68
2022-09-20T14:37:36.377Z,55.89
2022-09-20T14:40:25.548Z,55.89
2022-09-20T14:42:59.805Z,55.10
2022-09-20T14:45:43.256Z,55.33
2022-09-20T14:48:11.612Z,55.76
2022-09-20T14:50:43.213Z,55.49
2022-09-20T14:53:10.808Z,55.22
2022-09-20T14:58:27.184Z,54.67
2022-09-20T15:01:01.602Z,55.51
2022-09-20T15:03:31.411Z,56.12
2022-09-20T15:05:59.042Z,55.41
2022-09-20T15:08:27.299Z,54.80
2022-09-20T15:14:00.721Z,53.70
2022-09-20T15:16:29.716Z,53.16
2022-09-20T15:18:57.382Z,53.01
2022-09-20T15:21:26.137Z,52.94
2022-09-20T15:23:54.127Z,52.58
2022-09-20T15:26:21.797Z,52.69
2022-09-20T15:28:49.455Z,52.21
2022-09-20T15:31:19.411Z,52.16
2022-09-20T15:33:47.052Z,51.89
2022-09-20T15:36:14.683Z,51.25
2022-09-20T15:38:42.347Z,50.73
2022-09-20T15:41:10.021Z,50.30
2022-09-20T15:43:39.484Z,49.18
2022-09-20T15:46:26.603Z,48.18
2022-09-20T15:48:55.480Z,47.75
2022-09-20T15:51:23.335Z,47.83
2022-09-20T15:54:00.156Z,47.96
2022-09-20T15:56:31.002Z,48.16
2022-09-20T15:59:03.158Z,48.02
2022-09-20T16:01:40.515Z,48.42
2022-09-20T16:04:10.385Z,48.70
2022-09-20T16:06:41.393Z,48.99
2022-09-20T16:09:09.474Z,49.07
2022-09-20T16:11:39.773Z,49.07
2022-09-20T16:14:07.934Z,49.75
2022-09-20T16:16:40.100Z,50.06
2022-09-20T16:19:17.440Z,49.22
2022-09-20T16:21:51.327Z,49.12
2022-09-20T16:24:26.890Z,49.27
2022-09-20T16:26:54.892Z,49.22
2022-09-20T16:29:23.676Z,49.17
2022-09-20T16:31:53.422Z,49.44
2022-09-20T16:34:30.544Z,49.58
2022-09-20T16:37:09.652Z,49.87
2022-09-20T16:39:37.955Z,50.06
2022-09-20T16:42:07.401Z,50.36
2022-09-20T16:44:37.426Z,50.33
2022-09-20T16:47:13.435Z,50.57
2022-09-20T16:49:41.085Z,50.71
2022-09-20T16:52:09.174Z,50.92
2022-09-20T16:54:37.179Z,51.12
2022-09-20T16:57:05.142Z,51.25
2022-09-20T16:59:32.837Z,51.38
2022-09-20T17:02:00.520Z,51.61
2022-09-20T17:04:28.335Z,52.13
2022-09-20T17:06:55.954Z,51.93
2022-09-20T17:09:23.642Z,52.09
2022-09-20T17:11:51.915Z,52.19
2022-09-20T17:14:21.969Z,52.44
2022-09-20T17:16:50.506Z,52.63
2022-09-20T17:19:21.650Z,52.67
2022-09-20T17:21:51.282Z,53.02
2022-09-20T17:24:23.129Z,53.08
2022-09-20T17:26:51.579Z,53.28
2022-09-20T17:29:20.969Z,53.50
2022-09-20T17:31:56.001Z,53.69
2022-09-20T17:34:28.128Z,53.84
2022-09-20T17:36:55.730Z,53.88
2022-09-20T17:39:23.769Z,54.16
2022-09-20T17:41:51.669Z,54.35
2022-09-20T17:44:19.451Z,54.66
2022-09-20T17:46:50.573Z,54.70
2022-09-20T17:49:21.694Z,54.91
2022-09-20T17:51:53.659Z,55.01
2022-09-20T17:54:24.447Z,55.10
2022-09-20T17:56:56.336Z,55.27
2022-09-20T17:59:24.581Z,55.38
2022-09-20T18:01:55.062Z,55.61
2022-09-20T18:04:26.750Z,55.65
2022-09-20T18:06:55.439Z,55.79
2022-09-20T18:09:28.128Z,55.78
2022-09-20T18:11:56.359Z,55.85
2022-09-20T18:14:31.255Z,56.02
2022-09-20T18:17:03.798Z,56.17
2022-09-20T18:19:34.404Z,56.16
2022-09-20T18:22:04.371Z,56.28
2022-09-20T18:24:32.056Z,56.27
2022-09-20T18:27:00.982Z,56.46
2022-09-20T18:29:29.614Z,56.66
2022-09-20T18:32:00.661Z,56.70
2022-09-20T18:34:33.359Z,56.85
2022-09-20T18:37:12.391Z,56.78
2022-09-20T18:39:43.407Z,56.99
2022-09-20T18:42:11.112Z,57.06
2022-09-20T18:44:45.011Z,57.20
2022-09-20T18:47:12.584Z,57.45
2022-09-20T18:49:40.183Z,57.46
2022-09-20T18:52:11.574Z,57.63
2022-09-20T18:54:41.069Z,57.59
2022-09-20T18:57:15.597Z,57.74
2022-09-20T18:59:53.831Z,57.67
2022-09-20T19:02:39.147Z,57.84
2022-09-20T19:05:31.338Z,58.10
2022-09-20T19:08:04.705Z,58.04
2022-09-20T19:10:55.232Z,58.09
2022-09-20T19:13:44.952Z,58.18
2022-09-20T19:16:18.831Z,58.39
2022-09-20T19:18:56.241Z,58.63
2022-09-20T19:21:42.026Z,58.73
2022-09-20T19:24:42.581Z,58.66
2022-09-20T19:27:14.279Z,58.88
2022-09-20T19:29:42.293Z,59.00
2022-09-20T19:32:21.567Z,59.05
2022-09-20T19:34:51.511Z,59.28
2022-09-20T19:37:44.887Z,59.12
2022-09-20T19:40:35.429Z,59.27
2022-09-20T19:43:31.762Z,59.46
2022-09-20T19:46:31.518Z,59.55
2022-09-20T19:49:21.224Z,59.71
2022-09-20T19:51:49.139Z,59.77
2022-09-20T19:54:17.029Z,59.83
2022-09-20T19:56:59.457Z,59.97
2022-09-20T19:59:28.058Z,60.03
2022-09-20T20:01:56.556Z,60.07
2022-09-20T20:04:24.570Z,60.21
2022-09-20T20:07:13.969Z,60.35
2022-09-20T20:10:20.633Z,60.52
2022-09-20T20:13:46.020Z,60.55
2022-09-20T20:16:25.098Z,60.49
2022-09-20T20:19:33.154Z,60.49
2022-09-20T20:22:17.915Z,60.70
2022-09-20T20:24:45.437Z,60.85
2022-09-20T20:27:13.123Z,60.80
2022-09-20T20:29:41.149Z,60.87
2022-09-20T20:32:08.811Z,60.90
2022-09-20T20:34:37.078Z,61.01
2022-09-20T20:37:06.825Z,60.96
2022-09-20T20:39:34.605Z,61.18
2022-09-20T20:42:03.033Z,61.00
2022-09-20T20:44:31.934Z,61.33
2022-09-20T20:46:59.622Z,61.22
2022-09-20T20:49:27.639Z,61.33
2022-09-20T20:51:56.447Z,61.44
2022-09-20T20:54:24.476Z,61.45
2022-09-20T20:56:52.068Z,61.52
2022-09-20T20:59:19.835Z,61.62
2022-09-20T21:01:47.567Z,61.70
2022-09-20T21:04:16.252Z,61.71
2022-09-20T21:10:10.358Z,61.87
2022-09-20T21:12:38.009Z,62.00
2022-09-20T21:15:06.180Z,62.03
2022-09-20T21:17:36.274Z,62.19
2022-09-20T21:20:09.486Z,62.26
2022-09-20T21:22:37.071Z,62.26
2022-09-20T21:25:08.598Z,62.34
2022-09-20T21:27:37.031Z,62.52
2022-09-20T21:30:05.122Z,62.29
2022-09-20T21:32:32.776Z,62.41
2022-09-20T21:35:00.403Z,62.43
2022-09-20T21:37:28.035Z,62.50
2022-09-20T21:39:55.627Z,62.67
2022-09-20T21:42:23.405Z,62.72
2022-09-20T21:44:51.562Z,62.76
2022-09-20T21:47:20.508Z,62.77
2022-09-20T21:49:48.198Z,62.81
2022-09-20T21:52:15.842Z,62.66
2022-09-20T21:54:46.340Z,62.89
2022-09-20T21:57:14.704Z,62.84
2022-09-20T21:59:42.292Z,63.01
2022-09-20T22:02:10.393Z,63.10
2022-09-20T22:04:38.045Z,63.17
2022-09-20T22:07:05.636Z,63.31
2022-09-20T22:09:33.254Z,63.35
2022-09-20T22:12:01.023Z,63.35
2022-09-20T22:14:28.843Z,63.44
2022-09-20T22:16:56.813Z,63.64
2022-09-20T22:19:24.463Z,63.76
2022-09-20T22:21:52.117Z,63.73
2022-09-20T22:24:19.815Z,63.58
2022-09-20T22:26:50.812Z,63.74
2022-09-20T22:29:18.620Z,63.62
2022-09-20T22:31:54.237Z,63.72
2022-09-20T22:34:25.626Z,63.81
2022-09-20T22:36:54.061Z,63.94
2022-09-20T22:39:21.654Z,63.95
2022-09-20T22:41:52.217Z,63.90
2022-09-20T22:44:19.875Z,63.91
2022-09-20T22:46:47.562Z,64.00
2022-09-20T22:49:15.195Z,64.27
2022-09-20T22:51:43.028Z,64.29
2022-09-20T22:54:12.063Z,64.35
2022-09-20T22:56:42.281Z,64.36
2022-09-20T22:59:12.788Z,64.25
2022-09-20T23:01:44.810Z,64.25
2022-09-20T23:04:15.633Z,64.37
2022-09-20T23:06:52.014Z,64.40
2022-09-20T23:09:19.657Z,64.30
2022-09-20T23:11:47.866Z,64.32
2022-09-20T23:14:24.319Z,64.36
2022-09-20T23:16:52.847Z,64.50
2022-09-20T23:19:20.551Z,64.30
2022-09-20T23:21:48.198Z,64.50
2022-09-20T23:24:16.633Z,64.56
2022-09-20T23:26:45.264Z,64.55
2022-09-20T23:29:16.610Z,64.66
2022-09-20T23:31:47.500Z,64.59
2022-09-20T23:34:17.253Z,64.70
2022-09-20T23:36:46.097Z,64.75
2022-09-20T23:39:14.030Z,64.84
2022-09-20T23:41:45.791Z,64.77
2022-09-20T23:44:16.336Z,64.91
2022-09-20T23:46:43.976Z,64.79
2022-09-20T23:49:11.588Z,64.90
2022-09-20T23:51:39.304Z,65.04
2022-09-20T23:54:06.992Z,65.18
2022-09-20T23:56:35.764Z,65.07
2022-09-20T23:59:03.410Z,64.99
